Time;durP1;ratioP1;P1;durP2;ratioP2;P2;SDS_P1;SDS_P2;PMS_P1;PMS_P2;Temp;Humidity;BMP_temperature;BMP_pressure;BME280_temperature;BME280_humidity;BME280_pressure;Samples;Min_cycle;Max_cycle;Signal;HPM_P1;HPM_P2
2023/10/29 00:01:09;;;;;;;3.58;1.70;;;;;;;;;;5085567;28;20075;-62
2023/10/29 00:03:35;;;;;;;3.95;1.70;;;;;;;;;;5089676;28;20056;-62
2023/10/29 00:06:02;;;;;;;4.30;1.65;;;;;;;;;;5090269;28;20044;-62
2023/10/29 00:08:29;;;;;;;3.63;1.75;;;;;;;;;;5089296;28;20417;-63
2023/10/29 00:10:56;;;;;;;2.53;1.20;;;;;;;;;;5092846;28;20052;-63
2023/10/29 00:13:25;;;;;;;6.72;1.23;;;;;;;;;;5092694;28;20067;-63
2023/10/29 00:15:52;;;;;;;3.83;1.43;;;;;;;;;;5089468;28;20055;-63
2023/10/29 00:18:21;;;;;;;2.80;1.50;;;;;;;;;;5083403;28;20487;-63
2023/10/29 00:20:48;;;;;;;;;;;;;;;;;;5079865;28;20150;-63
2023/10/29 00:23:14;;;;;;;2.85;1.27;;;;;;;;;;5065395;28;19920;-63
2023/10/29 00:25:41;;;;;;;3.03;1.25;;;;;;;;;;5072974;28;20045;-63
2023/10/29 00:28:11;;;;;;;4.57;1.38;;;;;;;;;;5069561;28;20505;-63
2023/10/29 00:30:38;;;;;;;;;;;;;;;;;;5074332;28;20048;-63
2023/10/29 00:33:07;;;;;;;3.10;1.38;;;;;;;;;;5069335;28;19920;-63
2023/10/29 00:35:34;;;;;;;2.83;1.20;;;;;;;;;;5082558;28;20060;-63
2023/10/29 00:38:01;;;;;;;2.92;1.30;;;;;;;;;;5077352;28;20052;-62
2023/10/29 00:40:30;;;;;;;3.45;1.38;;;;;;;;;;5080708;28;20060;-62
2023/10/29 00:42:57;;;;;;;4.07;1.42;;;;;;;;;;5073142;28;20052;-62
2023/10/29 00:45:24;;;;;;;2.92;1.33;;;;;;;;;;5075461;28;20045;-62
2023/10/29 00:47:51;;;;;;;4.47;1.55;;;;;;;;;;5078287;28;20051;-62
2023/10/29 00:50:19;;;;;;;2.42;1.35;;;;;;;;;;5076534;28;20045;-62
2023/10/29 00:52:46;;;;;;;2.88;1.40;;;;;;;;;;5080940;28;20044;-62
2023/10/29 00:55:13;;;;;;;3.50;1.50;;;;;;;;;;5077474;28;20409;-62
2023/10/29 00:57:40;;;;;;;4.65;1.65;;;;;;;;;;5064717;28;20068;-62
2023/10/29 01:00:07;;;;;;;3.25;1.52;;;;;;;;;;5080098;28;20052;-62
2023/10/29 01:02:34;;;;;;;3.47;1.25;;;;;;;;;;5077777;28;20052;-63
2023/10/29 01:05:01;;;;;;;4.13;1.73;;;;;;;;;;5082899;28;20421;-63
2023/10/29 01:07:30;;;;;;;2.92;1.20;;;;;;;;;;5071162;28;20048;-62
2023/10/29 01:09:58;;;;;;;1.88;1.00;;;;;;;;;;5085750;28;20479;-63
2023/10/29 01:12:27;;;;;;;2.50;1.43;;;;;;;;;;5078761;28;20064;-63
2023/10/29 01:14:53;;;;;;;3.50;1.08;;;;;;;;;;5081575;28;20473;-63
2023/10/29 01:17:21;;;;;;;2.15;1.15;;;;;;;;;;5068710;28;20064;-62
2023/10/29 01:19:47;;;;;;;3.25;1.50;;;;;;;;;;5074360;28;20059;-62
2023/10/29 01:22:14;;;;;;;9.57;1.50;;;;;;;;;;5088645;28;20056;-63
2023/10/29 01:24:43;;;;;;;4.00;1.27;;;;;;;;;;5085584;28;20056;-62
2023/10/29 01:27:10;;;;;;;2.28;1.08;;;;;;;;;;5081088;28;20048;-62
2023/10/29 01:29:36;;;;;;;4.85;1.40;;;;;;;;;;5084668;28;20058;-62
2023/10/29 01:32:04;;;;;;;4.22;1.45;;;;;;;;;;5086881;28;20051;-61
2023/10/29 01:34:31;;;;;;;4.10;1.60;;;;;;;;;;5085192;28;20055;-62
2023/10/29 01:36:57;;;;;;;3.13;1.40;;;;;;;;;;5080450;28;20052;-62
2023/10/29 01:39:24;;;;;;;3.58;1.30;;;;;;;;;;5085735;28;20068;-62
2023/10/29 01:41:55;;;;;;;2.97;1.40;;;;;;;;;;5086127;28;20477;-62
2023/10/29 01:44:22;;;;;;;2.35;1.00;;;;;;;;;;5091292;28;20063;-63
2023/10/29 01:46:49;;;;;;;3.03;1.20;;;;;;;;;;5083092;28;20052;-62
2023/10/29 01:49:16;;;;;;;4.07;1.15;;;;;;;;;;5102643;28;20048;-62
2023/10/29 01:51:42;;;;;;;5.00;1.75;;;;;;;;;;5106172;28;20062;-63
2023/10/29 01:54:09;;;;;;;2.22;1.00;;;;;;;;;;5102343;28;20137;-62
2023/10/29 01:56:36;;;;;;;3.83;1.38;;;;;;;;;;5103553;28;20055;-62
2023/10/29 01:59:04;;;;;;;2.35;1.40;;;;;;;;;;5104632;28;20062;-62
2023/10/29 02:01:31;;;;;;;3.20;1.17;;;;;;;;;;5110130;28;20054;-63
2023/10/29 02:03:58;;;;;;;1.85;1.10;;;;;;;;;;5104342;28;20044;-63
2023/10/29 02:06:24;;;;;;;2.50;1.52;;;;;;;;;;5103692;28;20040;-62
2023/10/29 02:08:51;;;;;;;2.28;1.05;;;;;;;;;;5099924;28;20070;-62
2023/10/29 02:11:18;;;;;;;4.25;1.23;;;;;;;;;;5106937;28;20405;-62
2023/10/29 02:13:45;;;;;;;2.20;1.23;;;;;;;;;;5112602;28;20048;-63
2023/10/29 02:16:13;;;;;;;2.70;1.13;;;;;;;;;;5108603;28;20052;-62
2023/10/29 02:18:40;;;;;;;3.38;1.23;;;;;;;;;;5103137;28;20048;-62
2023/10/29 02:21:07;;;;;;;2.63;1.13;;;;;;;;;;5106544;28;20051;-62
2023/10/29 02:23:35;;;;;;;2.70;1.30;;;;;;;;;;5104250;28;20409;-62
2023/10/29 02:26:02;;;;;;;3.22;1.10;;;;;;;;;;5103339;28;20052;-62
2023/10/29 02:28:29;;;;;;;2.55;1.20;;;;;;;;;;5102962;28;20044;-62
2023/10/29 02:30:55;;;;;;;2.55;1.27;;;;;;;;;;5102428;28;20059;-63
2023/10/29 02:33:22;;;;;;;2.58;1.02;;;;;;;;;;5093245;28;20056;-63
2023/10/29 02:35:49;;;;;;;3.85;1.70;;;;;;;;;;5096772;28;20409;-63
2023/10/29 02:38:16;;;;;;;6.03;1.55;;;;;;;;;;5106956;28;20048;-64
2023/10/29 02:40:44;;;;;;;6.88;1.45;;;;;;;;;;5110201;28;20062;-63
2023/10/29 02:43:13;;;;;;;4.53;1.50;;;;;;;;;;5110182;28;20052;-62
2023/10/29 02:45:40;;;;;;;4.28;1.60;;;;;;;;;;5096695;28;20048;-62
2023/10/29 02:48:07;;;;;;;5.72;1.80;;;;;;;;;;5109393;28;20048;-62
2023/10/29 02:50:34;;;;;;;4.07;1.60;;;;;;;;;;5111598;28;20054;-63
2023/10/29 02:53:00;;;;;;;3.45;1.50;;;;;;;;;;5105089;28;20051;-64
2023/10/29 02:55:27;;;;;;;3.35;1.48;;;;;;;;;;5110893;28;20044;-63
2023/10/29 02:57:55;;;;;;;3.15;1.45;;;;;;;;;;5108027;28;20066;-63
2023/10/29 03:00:23;;;;;;;4.07;1.63;;;;;;;;;;5110557;27;20044;-63
2023/10/29 03:02:49;;;;;;;4.28;1.52;;;;;;;;;;5116201;27;20044;-63
2023/10/29 03:05:16;;;;;;;2.85;1.63;;;;;;;;;;5113381;27;20407;-64
2023/10/29 03:07:43;;;;;;;4.10;1.50;;;;;;;;;;5115735;28;20063;-63
2023/10/29 03:10:10;;;;;;;2.60;1.25;;;;;;;;;;5113350;27;20047;-63
2023/10/29 03:12:36;;;;;;;1.85;1.33;;;;;;;;;;5105756;27;20489;-63
2023/10/29 03:15:05;;;;;;;3.53;1.42;;;;;;;;;;5108949;27;20048;-63
2023/10/29 03:17:32;;;;;;;3.15;1.50;;;;;;;;;;5108098;28;20048;-63
2023/10/29 03:20:03;;;;;;;3.40;1.33;;;;;;;;;;5108720;27;20408;-63
2023/10/29 03:22:29;;;;;;;3.67;1.30;;;;;;;;;;5106423;27;20054;-63
2023/10/29 03:24:56;;;;;;;4.47;1.70;;;;;;;;;;5107138;27;20063;-63
2023/10/29 03:27:23;;;;;;;3.25;1.40;;;;;;;;;;5107271;27;20051;-63
2023/10/29 03:29:50;;;;;;;3.97;1.20;;;;;;;;;;5104548;27;20044;-62
2023/10/29 03:32:18;;;;;;;5.95;1.23;;;;;;;;;;5112198;27;20051;-63
2023/10/29 03:34:46;;;;;;;4.43;1.52;;;;;;;;;;5108343;27;20058;-63
2023/10/29 03:37:13;;;;;;;3.13;1.30;;;;;;;;;;5115726;27;20054;-63
2023/10/29 03:39:40;;;;;;;5.32;1.08;;;;;;;;;;5111659;28;20527;-63
2023/10/29 03:42:07;;;;;;;3.10;1.20;;;;;;;;;;5114983;28;20400;-63
2023/10/29 03:44:34;;;;;;;2.92;1.15;;;;;;;;;;5102301;28;20508;-63
2023/10/29 03:47:02;;;;;;;2.75;1.20;;;;;;;;;;5101173;27;20060;-63
2023/10/29 03:49:31;;;;;;;2.67;1.20;;;;;;;;;;5111136;27;20047;-63
2023/10/29 03:51:59;;;;;;;2.03;1.05;;;;;;;;;;5111703;28;20162;-63
2023/10/29 03:54:26;;;;;;;2.00;1.00;;;;;;;;;;5114979;27;20055;-64
2023/10/29 03:56:53;;;;;;;3.47;1.17;;;;;;;;;;5111640;27;20047;-63
2023/10/29 03:59:20;;;;;;;5.13;1.10;;;;;;;;;;5113329;27;20059;-64
2023/10/29 04:01:47;;;;;;;2.33;1.10;;;;;;;;;;5111888;28;20055;-63
2023/10/29 04:04:15;;;;;;;3.25;1.25;;;;;;;;;;5101117;27;20436;-63
2023/10/29 04:06:44;;;;;;;3.20;1.10;;;;;;;;;;5111532;27;20094;-63
2023/10/29 04:09:14;;;;;;;2.17;1.38;;;;;;;;;;5097902;27;20051;-63
2023/10/29 04:11:41;;;;;;;2.67;1.00;;;;;;;;;;5112308;27;20047;-64
2023/10/29 04:14:07;;;;;;;4.22;1.00;;;;;;;;;;5106102;27;20047;-65
2023/10/29 04:16:34;;;;;;;1.98;0.95;;;;;;;;;;5101156;27;20055;-64
2023/10/29 04:19:01;;;;;;;2.22;1.00;;;;;;;;;;5096451;27;20044;-64
2023/10/29 04:21:31;;;;;;;2.47;0.80;;;;;;;;;;5102850;27;20075;-64
2023/10/29 04:23:59;;;;;;;1.92;1.08;;;;;;;;;;5105609;28;20538;-64
2023/10/29 04:26:25;;;;;;;2.38;0.98;;;;;;;;;;5112539;27;20054;-65
2023/10/29 04:28:52;;;;;;;2.20;1.00;;;;;;;;;;5109491;28;20504;-64
2023/10/29 04:31:19;;;;;;;3.05;1.00;;;;;;;;;;5112875;28;20044;-65
2023/10/29 04:33:51;;;;;;;3.08;1.00;;;;;;;;;;5110783;27;20047;-64
2023/10/29 04:36:21;;;;;;;2.15;0.80;;;;;;;;;;5108568;27;20515;-64
2023/10/29 04:38:48;;;;;;;2.70;0.90;;;;;;;;;;5105459;27;20048;-64
2023/10/29 04:41:19;;;;;;;3.45;1.10;;;;;;;;;;5111491;27;20428;-64
2023/10/29 04:43:49;;;;;;;1.77;0.82;;;;;;;;;;5106150;28;20058;-63
2023/10/29 04:46:15;;;;;;;1.95;1.10;;;;;;;;;;5109569;27;20044;-63
2023/10/29 04:48:43;;;;;;;2.17;0.80;;;;;;;;;;5105624;27;20059;-63
2023/10/29 04:51:10;;;;;;;1.80;1.00;;;;;;;;;;5113944;27;20055;-63
2023/10/29 04:53:37;;;;;;;2.65;0.95;;;;;;;;;;5106180;28;20048;-63
2023/10/29 04:56:04;;;;;;;1.92;0.82;;;;;;;;;;5113707;28;20468;-63
2023/10/29 04:58:32;;;;;;;3.45;0.98;;;;;;;;;;5112479;27;20054;-63
2023/10/29 05:00:59;;;;;;;2.53;0.95;;;;;;;;;;5104757;27;20056;-62
2023/10/29 05:03:29;;;;;;;1.40;0.80;;;;;;;;;;5108851;27;20044;-63
2023/10/29 05:05:58;;;;;;;3.33;1.10;;;;;;;;;;5106583;27;20058;-63
2023/10/29 05:08:25;;;;;;;3.38;0.90;;;;;;;;;;5112566;27;20044;-62
2023/10/29 05:10:52;;;;;;;4.20;0.90;;;;;;;;;;5106617;27;20054;-63
2023/10/29 05:13:18;;;;;;;2.42;1.00;;;;;;;;;;5113601;27;20050;-64
2023/10/29 05:15:47;;;;;;;2.53;0.90;;;;;;;;;;5105158;27;20048;-64
2023/10/29 05:18:13;;;;;;;2.72;1.00;;;;;;;;;;5106250;28;20051;-64
2023/10/29 05:20:40;;;;;;;2.38;1.00;;;;;;;;;;5113113;28;20048;-63
2023/10/29 05:23:08;;;;;;;3.22;0.93;;;;;;;;;;5107464;27;20048;-64
2023/10/29 05:25:36;;;;;;;1.65;0.70;;;;;;;;;;5105772;28;20047;-63
2023/10/29 05:28:02;;;;;;;2.05;0.80;;;;;;;;;;5111733;27;20058;-63
2023/10/29 05:30:29;;;;;;;2.53;1.00;;;;;;;;;;5104576;27;20052;-64
2023/10/29 05:33:00;;;;;;;3.38;1.00;;;;;;;;;;5102812;28;20055;-63
2023/10/29 05:35:27;;;;;;;2.38;0.88;;;;;;;;;;5111739;28;20500;-63
2023/10/29 05:37:56;;;;;;;3.30;0.95;;;;;;;;;;5112786;28;20051;-64
2023/10/29 05:40:22;;;;;;;3.45;0.93;;;;;;;;;;5103542;27;20055;-63
2023/10/29 05:42:49;;;;;;;2.45;0.80;;;;;;;;;;5113184;28;20413;-64
2023/10/29 05:45:16;;;;;;;1.88;0.70;;;;;;;;;;5106829;28;20058;-63
2023/10/29 05:47:43;;;;;;;1.92;0.98;;;;;;;;;;5101074;28;20063;-63
2023/10/29 05:50:11;;;;;;;3.03;0.70;;;;;;;;;;5096799;27;20048;-64
2023/10/29 05:52:39;;;;;;;1.67;0.85;;;;;;;;;;5112071;28;20048;-64
2023/10/29 05:55:12;;;;;;;7.47;1.10;;;;;;;;;;5103696;27;20047;-63
2023/10/29 05:57:38;;;;;;;2.55;1.10;;;;;;;;;;5107464;27;20078;-64
2023/10/29 06:00:06;;;;;;;4.13;0.90;;;;;;;;;;5112761;27;20070;-62
2023/10/29 06:02:34;;;;;;;2.97;0.93;;;;;;;;;;5101959;28;20051;-63
2023/10/29 06:05:00;;;;;;;1.67;0.80;;;;;;;;;;5107221;28;20048;-63
2023/10/29 06:07:29;;;;;;;1.85;0.90;;;;;;;;;;5112793;28;20472;-63
2023/10/29 06:09:56;;;;;;;3.70;0.90;;;;;;;;;;5110629;28;20073;-63
2023/10/29 06:12:22;;;;;;;2.17;0.80;;;;;;;;;;5105987;28;20062;-63
2023/10/29 06:14:49;;;;;;;2.40;0.80;;;;;;;;;;5112230;28;20063;-63
2023/10/29 06:17:16;;;;;;;5.63;1.08;;;;;;;;;;5107063;28;20055;-62
2023/10/29 06:19:43;;;;;;;2.30;0.90;;;;;;;;;;5112606;28;20051;-63
2023/10/29 06:22:10;;;;;;;2.47;0.80;;;;;;;;;;5103238;28;20051;-61
2023/10/29 06:24:39;;;;;;;3.35;1.00;;;;;;;;;;5110341;28;20054;-63
2023/10/29 06:27:05;;;;;;;2.13;0.90;;;;;;;;;;5105198;28;20056;-62
2023/10/29 06:29:32;;;;;;;2.67;1.00;;;;;;;;;;5107418;28;20058;-62
2023/10/29 06:31:59;;;;;;;3.47;1.00;;;;;;;;;;5112244;28;20056;-61
2023/10/29 06:34:26;;;;;;;2.03;0.93;;;;;;;;;;5094124;28;20052;-63
2023/10/29 06:36:53;;;;;;;2.40;0.82;;;;;;;;;;5096085;28;20055;-62
2023/10/29 06:39:20;;;;;;;2.50;0.95;;;;;;;;;;5108627;28;20055;-62
2023/10/29 06:41:48;;;;;;;1.55;0.70;;;;;;;;;;5116351;28;20109;-62
2023/10/29 06:44:15;;;;;;;3.00;1.10;;;;;;;;;;5116772;28;20408;-62
2023/10/29 06:46:41;;;;;;;1.35;0.73;;;;;;;;;;5116438;28;20074;-62
2023/10/29 06:49:08;;;;;;;3.28;1.40;;;;;;;;;;5130003;27;20058;-61
2023/10/29 06:51:35;;;;;;;2.22;0.90;;;;;;;;;;5136869;27;20055;-62
2023/10/29 06:54:02;;;;;;;2.08;0.93;;;;;;;;;;5136752;27;20062;-62
2023/10/29 06:56:29;;;;;;;2.30;0.98;;;;;;;;;;5136711;27;20533;-61
2023/10/29 06:58:57;;;;;;;2.55;0.80;;;;;;;;;;5129808;27;20043;-62
2023/10/29 07:01:24;;;;;;;2.47;0.85;;;;;;;;;;5115187;27;20051;-61
2023/10/29 07:03:51;;;;;;;2.10;0.80;;;;;;;;;;5114700;27;20063;-62
2023/10/29 07:06:18;;;;;;;2.80;0.80;;;;;;;;;;5108413;27;20051;-61
2023/10/29 07:08:47;;;;;;;1.25;0.70;;;;;;;;;;5113086;27;20044;-61
2023/10/29 07:11:14;;;;;;;1.75;0.65;;;;;;;;;;5114181;27;20093;-61
2023/10/29 07:13:41;;;;;;;3.30;0.93;;;;;;;;;;5115261;27;20058;-61
2023/10/29 07:16:10;;;;;;;2.72;1.20;;;;;;;;;;5110347;27;20495;-61
2023/10/29 07:18:37;;;;;;;2.00;0.85;;;;;;;;;;5105674;27;20066;-61
2023/10/29 07:21:04;;;;;;;1.55;0.63;;;;;;;;;;5101775;27;20058;-61
2023/10/29 07:23:31;;;;;;;2.08;0.82;;;;;;;;;;5101423;27;20055;-61
2023/10/29 07:25:58;;;;;;;2.75;0.80;;;;;;;;;;5110214;27;20051;-61
2023/10/29 07:28:25;;;;;;;3.70;0.85;;;;;;;;;;5107297;27;20043;-61
2023/10/29 07:30:52;;;;;;;3.22;0.93;;;;;;;;;;5104957;27;20051;-61
2023/10/29 07:33:20;;;;;;;2.53;0.73;;;;;;;;;;5103229;27;20051;-61
2023/10/29 07:35:47;;;;;;;2.72;0.80;;;;;;;;;;5108985;27;20484;-61
2023/10/29 07:38:13;;;;;;;2.05;0.80;;;;;;;;;;5107154;27;20361;-61
2023/10/29 07:40:40;;;;;;;3.28;1.00;;;;;;;;;;5101830;27;20048;-61
2023/10/29 07:43:07;;;;;;;3.90;1.00;;;;;;;;;;5108394;28;20043;-62
2023/10/29 07:45:34;;;;;;;2.13;1.05;;;;;;;;;;5103123;27;20059;-61
2023/10/29 07:48:01;;;;;;;1.73;0.68;;;;;;;;;;5111488;27;20428;-61
2023/10/29 07:50:29;;;;;;;4.60;1.00;;;;;;;;;;5114216;27;20040;-61
2023/10/29 07:52:56;;;;;;;2.50;0.52;;;;;;;;;;5109500;28;20059;-61
2023/10/29 07:55:23;;;;;;;1.33;0.63;;;;;;;;;;5113796;27;20054;-62
2023/10/29 07:57:49;;;;;;;2.13;0.80;;;;;;;;;;5107799;28;20056;-62
2023/10/29 08:00:17;;;;;;;2.33;0.73;;;;;;;;;;5112698;28;20051;-61
2023/10/29 08:02:45;;;;;;;3.38;1.00;;;;;;;;;;5109703;27;20048;-62
2023/10/29 08:05:12;;;;;;;1.67;0.70;;;;;;;;;;5112224;27;20500;-61
2023/10/29 08:07:40;;;;;;;1.65;0.70;;;;;;;;;;5097445;27;20056;-62
2023/10/29 08:10:08;;;;;;;3.58;0.80;;;;;;;;;;5094872;28;20044;-61
2023/10/29 08:12:35;;;;;;;3.90;0.93;;;;;;;;;;5094677;28;20052;-61
2023/10/29 08:15:02;;;;;;;1.20;0.68;;;;;;;;;;5094235;28;20052;-61
2023/10/29 08:17:29;;;;;;;2.25;0.80;;;;;;;;;;5095319;27;20400;-61
2023/10/29 08:19:58;;;;;;;2.70;0.50;;;;;;;;;;5094369;28;20056;-61
2023/10/29 08:22:25;;;;;;;2.35;0.73;;;;;;;;;;5094590;28;20472;-60
2023/10/29 08:24:53;;;;;;;2.35;0.80;;;;;;;;;;5098172;27;20052;-38
2023/10/29 08:27:20;;;;;;;2.15;0.55;;;;;;;;;;5106210;27;20058;-38
2023/10/29 08:29:48;;;;;;;1.15;0.50;;;;;;;;;;5106822;27;20056;-39
2023/10/29 08:32:15;;;;;;;1.40;0.40;;;;;;;;;;5111241;27;20052;-38
2023/10/29 08:34:42;;;;;;;1.58;0.57;;;;;;;;;;5109131;27;20409;-38
2023/10/29 08:37:10;;;;;;;1.17;0.50;;;;;;;;;;5113921;28;20055;-39
2023/10/29 08:39:37;;;;;;;2.78;0.90;;;;;;;;;;5112688;28;20047;-38
2023/10/29 08:42:05;;;;;;;1.10;0.50;;;;;;;;;;5104964;28;20075;-38
2023/10/29 08:44:31;;;;;;;2.25;0.70;;;;;;;;;;5107715;27;20066;-38
2023/10/29 08:46:58;;;;;;;2.17;0.68;;;;;;;;;;5110172;27;20048;-39
2023/10/29 08:49:25;;;;;;;2.08;0.70;;;;;;;;;;5108161;27;20412;-39
2023/10/29 08:51:52;;;;;;;2.25;0.60;;;;;;;;;;5106356;28;20416;-39
2023/10/29 08:54:18;;;;;;;1.27;0.50;;;;;;;;;;5103077;27;20435;-39
2023/10/29 08:56:45;;;;;;;1.85;0.68;;;;;;;;;;5104229;27;20047;-39
2023/10/29 08:59:13;;;;;;;2.95;0.65;;;;;;;;;;5108315;27;20048;-38
2023/10/29 09:01:40;;;;;;;2.22;0.60;;;;;;;;;;5107285;28;20048;-39
2023/10/29 09:04:08;;;;;;;1.85;0.70;;;;;;;;;;5111581;27;20059;-39
2023/10/29 09:06:37;;;;;;;1.88;0.60;;;;;;;;;;5102824;27;20052;-39
2023/10/29 09:09:04;;;;;;;2.67;0.63;;;;;;;;;;5106464;27;20048;-39
2023/10/29 09:11:31;;;;;;;2.92;0.70;;;;;;;;;;5103444;28;20496;-39
2023/10/29 09:13:58;;;;;;;1.70;0.70;;;;;;;;;;5110540;27;20047;-39
2023/10/29 09:16:26;;;;;;;2.55;0.82;;;;;;;;;;5108387;27;20055;-39
2023/10/29 09:18:53;;;;;;;2.30;0.70;;;;;;;;;;5106956;28;20056;-38
2023/10/29 09:21:20;;;;;;;1.65;0.60;;;;;;;;;;5102556;27;20043;-39
2023/10/29 09:23:46;;;;;;;2.97;0.82;;;;;;;;;;5093667;27;20048;-38
2023/10/29 09:26:13;;;;;;;1.70;0.65;;;;;;;;;;5099415;27;20051;-39
2023/10/29 09:28:40;;;;;;;2.55;0.70;;;;;;;;;;5103088;28;20044;-39
2023/10/29 09:31:08;;;;;;;1.48;0.55;;;;;;;;;;5110636;27;20378;-39
2023/10/29 09:33:36;;;;;;;3.80;0.70;;;;;;;;;;5105858;28;20051;-62
2023/10/29 09:36:03;;;;;;;1.13;0.50;;;;;;;;;;5105386;28;20090;-63
2023/10/29 09:38:33;;;;;;;2.17;0.52;;;;;;;;;;5105843;28;20044;-62
2023/10/29 09:40:59;;;;;;;;;;;;;;;;;;5093555;28;20048;-62
2023/10/29 09:43:27;;;;;;;2.00;0.73;;;;;;;;;;5093347;28;19943;-63
2023/10/29 09:45:55;;;;;;;1.83;0.60;;;;;;;;;;5103344;28;20477;-63
2023/10/29 09:48:23;;;;;;;1.65;0.80;;;;;;;;;;5106041;28;20413;-62
2023/10/29 09:50:51;;;;;;;4.15;0.73;;;;;;;;;;5107072;28;20055;-62
2023/10/29 09:53:18;;;;;;;2.45;0.50;;;;;;;;;;5106726;28;20070;-62
2023/10/29 09:55:45;;;;;;;1.42;0.57;;;;;;;;;;5104250;28;20048;-62
2023/10/29 09:58:12;;;;;;;3.40;0.75;;;;;;;;;;5112189;28;20052;-63
2023/10/29 10:00:39;;;;;;;2.05;0.65;;;;;;;;;;5106666;28;20048;-62
2023/10/29 10:03:07;;;;;;;1.67;0.60;;;;;;;;;;5111443;28;20099;-63
2023/10/29 10:05:34;;;;;;;2.38;0.70;;;;;;;;;;5102582;28;20063;-63
2023/10/29 10:08:02;;;;;;;4.03;0.90;;;;;;;;;;5105845;28;20055;-62
2023/10/29 10:10:36;;;;;;;3.40;0.90;;;;;;;;;;5102907;27;20595;-64
2023/10/29 10:13:04;;;;;;;1.95;0.80;;;;;;;;;;5112751;27;20056;-63
2023/10/29 10:15:31;;;;;;;2.33;0.90;;;;;;;;;;5112653;27;20055;-64
2023/10/29 10:17:58;;;;;;;1.73;0.50;;;;;;;;;;5109594;27;20051;-63
2023/10/29 10:20:25;;;;;;;1.95;0.80;;;;;;;;;;5113339;27;20055;-63
2023/10/29 10:22:56;;;;;;;1.95;0.70;;;;;;;;;;5117571;27;20488;-63
2023/10/29 10:25:24;;;;;;;1.67;0.60;;;;;;;;;;5109819;27;20413;-63
2023/10/29 10:27:52;;;;;;;1.92;0.77;;;;;;;;;;5111828;27;20048;-62
2023/10/29 10:30:26;;;;;;;2.45;0.50;;;;;;;;;;5113759;27;20085;-63
2023/10/29 10:32:52;;;;;;;2.13;0.85;;;;;;;;;;5116736;27;20058;-62
2023/10/29 10:35:19;;;;;;;1.67;0.60;;;;;;;;;;5104183;27;20052;-61
2023/10/29 10:37:53;;;;;;;1.30;0.60;;;;;;;;;;5109178;27;20051;-62
2023/10/29 10:40:21;;;;;;;1.90;0.80;;;;;;;;;;5120869;27;20084;-63
2023/10/29 10:42:55;;;;;;;1.73;0.70;;;;;;;;;;5123760;27;20051;-61
2023/10/29 10:45:26;;;;;;;1.92;0.73;;;;;;;;;;5118936;27;20050;-61
2023/10/29 10:47:56;;;;;;;2.28;0.85;;;;;;;;;;5119035;27;20558;-61
2023/10/29 10:50:23;;;;;;;1.50;0.60;;;;;;;;;;5116899;27;20055;-62
2023/10/29 10:52:51;;;;;;;2.97;1.00;;;;;;;;;;5106425;27;20051;-61
2023/10/29 10:55:18;;;;;;;2.47;0.70;;;;;;;;;;5122053;27;20054;-61
2023/10/29 10:57:45;;;;;;;1.27;0.50;;;;;;;;;;5108284;27;20401;-63
2023/10/29 11:00:16;;;;;;;2.73;0.80;;;;;;;;;;5109462;27;20082;-63
2023/10/29 11:02:43;;;;;;;2.33;0.50;;;;;;;;;;5115948;27;20484;-62
2023/10/29 11:05:11;;;;;;;1.75;0.70;;;;;;;;;;5114331;27;20058;-62
2023/10/29 11:07:39;;;;;;;2.78;0.70;;;;;;;;;;5116989;27;20060;-61
2023/10/29 11:10:08;;;;;;;1.50;0.68;;;;;;;;;;5100123;27;20058;-62
2023/10/29 11:12:35;;;;;;;1.60;0.50;;;;;;;;;;5114698;27;20070;-61
2023/10/29 11:15:16;;;;;;;1.92;0.93;;;;;;;;;;5119071;28;20063;-62
2023/10/29 11:17:53;;;;;;;2.45;0.70;;;;;;;;;;5099717;27;20055;-62
2023/10/29 11:20:45;;;;;;;2.47;0.77;;;;;;;;;;5096616;28;20481;-62
2023/10/29 11:23:14;;;;;;;1.98;0.90;;;;;;;;;;5095339;28;20051;-62
2023/10/29 11:25:41;;;;;;;2.37;0.80;;;;;;;;;;5095390;28;20056;-62
2023/10/29 11:28:38;;;;;;;2.50;0.75;;;;;;;;;;5095335;28;20066;-62
2023/10/29 11:31:19;;;;;;;2.03;0.70;;;;;;;;;;5101640;27;20044;-62
2023/10/29 11:33:47;;;;;;;3.28;0.73;;;;;;;;;;5115596;28;20052;-62
2023/10/29 11:36:30;;;;;;;2.08;1.05;;;;;;;;;;5115029;28;20056;-62
2023/10/29 11:39:12;;;;;;;1.95;0.80;;;;;;;;;;5115810;28;20052;-61
2023/10/29 11:41:40;;;;;;;2.58;0.77;;;;;;;;;;5114305;28;20052;-62
2023/10/29 11:44:23;;;;;;;1.13;0.50;;;;;;;;;;5115481;28;20055;-63
2023/10/29 11:47:02;;;;;;;2.05;0.60;;;;;;;;;;5125514;27;20054;-62
2023/10/29 11:49:29;;;;;;;;;;;;;;;;;;5136024;27;20062;-62
2023/10/29 11:51:59;;;;;;;3.85;1.27;;;;;;;;;;5135864;27;19919;-62
2023/10/29 11:54:25;;;;;;;1.90;0.55;;;;;;;;;;5135611;27;20062;-62
2023/10/29 11:56:53;;;;;;;1.70;0.63;;;;;;;;;;5135852;27;20055;-62
2023/10/29 11:59:20;;;;;;;1.50;0.63;;;;;;;;;;5135561;27;20059;-62
2023/10/29 12:01:47;;;;;;;2.17;0.70;;;;;;;;;;5128540;27;20047;-62
2023/10/29 12:04:15;;;;;;;1.35;0.63;;;;;;;;;;5135847;27;20047;-62
2023/10/29 12:06:43;;;;;;;3.17;0.80;;;;;;;;;;5135520;27;20061;-62
2023/10/29 12:09:17;;;;;;;3.22;0.80;;;;;;;;;;5136001;27;20054;-63
2023/10/29 12:11:44;;;;;;;2.25;0.75;;;;;;;;;;5118789;27;20051;-62
2023/10/29 12:14:11;;;;;;;4.10;0.73;;;;;;;;;;5115787;28;20401;-63
2023/10/29 12:16:38;;;;;;;1.33;0.50;;;;;;;;;;5124112;27;20416;-62
2023/10/29 12:19:04;;;;;;;1.65;0.70;;;;;;;;;;5101880;27;20055;-62
2023/10/29 12:21:33;;;;;;;3.50;0.90;;;;;;;;;;5093813;28;20059;-63
2023/10/29 12:24:00;;;;;;;3.30;0.70;;;;;;;;;;5094379;28;20507;-62
2023/10/29 12:26:27;;;;;;;1.33;0.57;;;;;;;;;;5093928;28;20052;-62
2023/10/29 12:28:54;;;;;;;2.58;1.05;;;;;;;;;;5094340;28;20412;-63
2023/10/29 12:31:25;;;;;;;2.33;0.90;;;;;;;;;;5101006;28;20052;-62
2023/10/29 12:33:55;;;;;;;1.25;0.63;;;;;;;;;;5113562;28;20412;-63
2023/10/29 12:36:23;;;;;;;3.03;1.00;;;;;;;;;;5114666;28;20055;-61
2023/10/29 12:38:51;;;;;;;3.00;0.93;;;;;;;;;;5114575;28;20058;-62
2023/10/29 12:41:21;;;;;;;2.83;1.00;;;;;;;;;;5114634;28;20051;-62
2023/10/29 12:43:49;;;;;;;1.65;0.85;;;;;;;;;;5114302;28;20052;-63
2023/10/29 12:46:16;;;;;;;2.55;1.00;;;;;;;;;;5105400;28;20405;-63
2023/10/29 12:48:56;;;;;;;2.03;0.80;;;;;;;;;;5106188;28;20066;-63
2023/10/29 12:51:24;;;;;;;2.97;1.15;;;;;;;;;;5114605;28;20058;-63
2023/10/29 12:53:53;;;;;;;3.28;1.20;;;;;;;;;;5114481;28;20070;-66
2023/10/29 12:56:20;;;;;;;3.25;1.30;;;;;;;;;;5114545;28;20477;-63
2023/10/29 12:58:47;;;;;;;1.63;0.85;;;;;;;;;;5112625;27;20059;-62
2023/10/29 13:01:14;;;;;;;3.78;1.13;;;;;;;;;;5114181;28;20396;-62
2023/10/29 13:03:40;;;;;;;2.97;1.40;;;;;;;;;;5129932;27;20062;-62
2023/10/29 13:06:08;;;;;;;4.63;2.00;;;;;;;;;;5134766;27;20476;-62
2023/10/29 13:08:35;;;;;;;3.53;0.95;;;;;;;;;;5135117;27;20479;-62
2023/10/29 13:11:07;;;;;;;3.65;1.00;;;;;;;;;;5123846;27;20059;-62
2023/10/29 13:13:40;;;;;;;2.95;0.80;;;;;;;;;;5109157;28;20043;-63
2023/10/29 13:16:07;;;;;;;3.78;0.90;;;;;;;;;;5107419;27;20047;-62
2023/10/29 13:18:34;;;;;;;2.67;1.13;;;;;;;;;;5116670;27;20043;-62
2023/10/29 13:21:03;;;;;;;1.80;0.77;;;;;;;;;;5108265;27;20416;-65
2023/10/29 13:23:30;;;;;;;2.97;1.02;;;;;;;;;;5101609;27;20043;-62
2023/10/29 13:25:57;;;;;;;3.17;1.08;;;;;;;;;;5107504;27;20420;-62
2023/10/29 13:28:25;;;;;;;2.03;1.00;;;;;;;;;;5107316;27;20050;-62
2023/10/29 13:30:55;;;;;;;3.28;1.10;;;;;;;;;;5100562;28;20056;-62
2023/10/29 13:33:23;;;;;;;5.10;1.15;;;;;;;;;;5103688;27;20054;-63
2023/10/29 13:35:51;;;;;;;2.80;1.25;;;;;;;;;;5110792;28;20054;-63
2023/10/29 13:38:18;;;;;;;2.50;1.20;;;;;;;;;;5105679;27;20058;-61
2023/10/29 13:40:45;;;;;;;4.18;1.50;;;;;;;;;;5127135;27;20511;-62
2023/10/29 13:43:12;;;;;;;2.67;1.40;;;;;;;;;;5120398;27;20047;-63
2023/10/29 13:45:40;;;;;;;2.00;1.13;;;;;;;;;;5100704;28;20048;-63
2023/10/29 13:48:11;;;;;;;3.15;1.30;;;;;;;;;;5109268;27;20052;-63
2023/10/29 13:50:38;;;;;;;5.68;2.08;;;;;;;;;;5105544;28;20051;-63
2023/10/29 13:53:05;;;;;;;2.17;1.00;;;;;;;;;;5100291;27;20397;-63
2023/10/29 13:55:32;;;;;;;7.13;4.78;;;;;;;;;;5107612;27;20055;-63
2023/10/29 13:58:01;;;;;;;2.70;1.10;;;;;;;;;;5098782;28;20052;-63
2023/10/29 14:00:27;;;;;;;4.25;1.40;;;;;;;;;;5105213;28;20082;-63
2023/10/29 14:02:56;;;;;;;1.80;0.98;;;;;;;;;;5107532;28;20058;-63
2023/10/29 14:05:23;;;;;;;2.67;1.13;;;;;;;;;;5107471;28;20074;-61
2023/10/29 14:07:49;;;;;;;2.72;1.02;;;;;;;;;;5111272;28;20048;-64
2023/10/29 14:10:16;;;;;;;2.22;1.10;;;;;;;;;;5108610;28;20047;-68
2023/10/29 14:12:45;;;;;;;2.72;1.10;;;;;;;;;;5111363;28;20048;-62
2023/10/29 14:15:12;;;;;;;3.57;1.07;;;;;;;;;;5112293;28;20048;-62
2023/10/29 14:17:39;;;;;;;3.15;1.27;;;;;;;;;;5107486;28;20417;-61
2023/10/29 14:20:08;;;;;;;2.83;0.90;;;;;;;;;;5108749;28;20052;-64
2023/10/29 14:22:35;;;;;;;2.03;1.23;;;;;;;;;;5108997;28;20044;-64
2023/10/29 14:25:04;;;;;;;1.40;1.00;;;;;;;;;;5108534;28;20048;-64
2023/10/29 14:27:31;;;;;;;1.42;0.80;;;;;;;;;;5101238;28;20056;-63
2023/10/29 14:29:58;;;;;;;1.85;0.85;;;;;;;;;;5110461;28;20048;-62
2023/10/29 14:32:25;;;;;;;2.67;1.90;;;;;;;;;;5110621;28;20044;-60
2023/10/29 14:34:52;;;;;;;2.10;1.10;;;;;;;;;;5108655;28;20477;-62
2023/10/29 14:37:23;;;;;;;2.60;1.25;;;;;;;;;;5111382;28;20389;-62
2023/10/29 14:39:49;;;;;;;4.05;3.03;;;;;;;;;;5112756;28;20056;-61
2023/10/29 14:42:16;;;;;;;3.90;2.88;;;;;;;;;;5110683;28;20043;-62
2023/10/29 14:44:43;;;;;;;1.85;0.82;;;;;;;;;;5111300;28;20055;-62
2023/10/29 14:47:10;;;;;;;2.10;0.90;;;;;;;;;;5092193;28;20059;-62